KBUR

Bob Hope Airport

Burbank, California, USA
METAR KBUR 230753Z 00000KT 10SM FEW049 08/04 A3016 RMK AO2 SLP208 T00830044 401440033
Observed Flight Rules
Feb-23 @ 07:53 UTC (25 minutes ago) Visual Flight Rules
Wind Visibility Clouds
Calm 10 miles
  • Few at 4,900' AGL
Temperatures Readings
Current 8°C / 46°F
Dewpoint 4°C / 39°F
Humidity 76%
Altimeter 30.16" Hg
Pressure 1020.8 hPa
Elevation 217
METAR KBUR 230753Z 00000KT 10SM FEW049 08/04 A3016 RMK AO2 SLP208 T00830044 401440033
Observed Flight Rules
Feb-23 @ 07:53 UTC
(25 minutes ago)
VFR
Wind Visibility
Calm 10 miles
Clouds
  • Few at 4,900' AGL
Temperature Dewpoint
8°C / 46°F 4°C / 39°F
Humidity Altimeter Pressure
76% 30.16" Hg 1020.8 hPa